CDT,Max TemperatureF,Mean TemperatureF,Min TemperatureF,Max Dew PointF,MeanDew PointF,Min DewpointF,Max Humidity, Mean Humidity, Min Humidity, Max Sea Level PressureIn, Mean Sea Level PressureIn, Min Sea Level PressureIn, Max VisibilityMiles, Mean VisibilityMiles, Min VisibilityMiles, Max Wind SpeedMPH, Mean Wind SpeedMPH, Max Gust SpeedMPH,PrecipitationIn, CloudCover, Events, WindDirDegrees
2012-9-1,88,83,78,79,78,75,100,89,77,30.14,30.08,30.04,10,10,6,14,3,20,0.03,2,Rain-Thunderstorm,188
2012-9-2,90,84,78,81,78,75,100,86,72,30.10,30.04,29.99,10,9,1,14,5,17,0.33,3,Rain-Thunderstorm,206
2012-9-3,92,85,78,79,77,74,97,78,59,30.06,30.00,29.95,10,10,9,13,5,17,0.00,1,,223
2012-9-4,93,85,77,77,76,73,97,75,52,30.01,29.96,29.90,10,10,10,13,6,17,0.00,0,,227
2012-9-5,93,85,77,78,76,73,97,75,52,29.96,29.92,29.86,10,10,6,12,5,16,0.00,1,,246
2012-9-6,95,87,78,79,77,74,97,75,52,29.98,29.92,29.88,10,10,7,8,4,18,0.00,0,,241
2012-9-7,94,86,78,78,76,74,100,76,52,29.94,29.89,29.81,10,10,7,10,3,15,0.00,0,,238
2012-9-8,91,82,73,77,74,68,97,80,63,30.03,29.92,29.85,10,10,7,22,8,26,0.00,4,,356
2012-9-9,86,76,65,67,60,56,87,64,40,30.12,30.06,30.02,10,10,10,17,7,23,0.00,0,,36
2012-9-10,87,74,61,64,60,56,93,64,35,30.14,30.09,30.05,10,10,10,14,4,20,0.00,0,,66
2012-9-11,88,77,65,70,64,61,93,68,43,30.15,30.09,30.06,10,10,10,14,6,20,0.00,1,,89
2012-9-12,87,79,71,76,72,66,93,77,61,30.14,30.08,30.04,10,8,0,17,7,21,1.08,4,Fog-Rain-Thunderstorm,131
2012-9-13,89,80,71,74,71,67,93,73,53,30.16,30.11,30.06,10,10,10,25,5,30,0.00,1,Thunderstorm,97
2012-9-14,90,81,71,74,71,68,94,73,52,30.17,30.13,30.08,10,10,10,12,5,15,0.00,1,,77
2012-9-15,92,82,72,73,70,65,93,70,46,30.15,30.10,30.05,10,10,10,9,4,14,0.00,0,,42
2012-9-16,90,81,71,74,70,67,93,70,47,30.06,30.00,29.93,10,10,7,9,2,15,0.00,1,,133
2012-9-17,83,77,71,74,71,67,100,81,62,29.93,29.83,29.73,10,8,1,16,6,20,1.57,6,Rain-Thunderstorm,356
2012-9-18,88,79,69,70,68,64,97,72,46,30.04,29.91,29.83,10,10,8,16,8,20,T,4,Rain,336
2012-9-19,83,72,61,67,57,51,84,59,34,30.15,30.09,30.05,10,10,10,15,7,20,0.00,0,,46
2012-9-20,84,71,57,59,55,49,97,64,31,30.12,30.07,30.02,10,10,10,10,3,14,0.00,0,,66
2012-9-21,88,75,61,72,64,57,93,71,48,30.06,30.02,29.97,10,10,6,10,3,14,0.00,0,,78
2012-9-22,91,80,69,74,70,65,100,72,44,30.12,30.06,29.99,10,6,0,9,2,13,0.00,2,Fog,71
2012-9-23,92,81,69,74,70,66,100,74,47,30.19,30.13,30.09,10,7,0,9,2,13,0.00,0,Fog,129
2012-9-24,91,81,71,73,71,69,94,75,56,30.19,30.13,30.05,10,6,1,9,2,13,0.00,0,,153
2012-9-25,88,80,71,75,72,70,94,75,55,30.12,30.07,30.03,10,6,2,12,5,17,0.00,1,,161
2012-9-26,90,80,70,72,69,65,97,72,46,30.11,30.06,30.01,10,10,6,12,4,16,0.00,0,,148
2012-9-27,90,80,69,75,70,68,97,74,50,30.14,30.08,30.02,10,10,7,10,4,14,0.00,1,,102
2012-9-28,88,80,72,76,73,71,100,82,63,30.06,30.01,29.96,10,9,0,17,3,22,0.03,3,Fog-Rain-Thunderstorm,96
2012-9-29,79,76,72,75,74,72,100,93,85,29.98,29.90,29.78,10,7,1,14,6,18,2.60,8,Rain-Thunderstorm,83
2012-9-30,85,75,64,77,71,57,94,80,65,29.78,29.64,29.53,10,8,0,21,10,30,1.47,8,Fog-Rain-Thunderstorm,249